プラハ の空港の天気 - METARとTAF

ルズィニエ国際空港(プラハ) ( LKPR / PRG ) - チェコ プラハ
飛行場実況気象(Metar)
観測時間02/21 02:00 CET (02/21 01:00 UTC)
風向・風速南南西 4m/s
視程10km以上
天気現象
なし
気温3℃
湿度87%
気圧1025hPa
METARLKPR 210100Z 21007KT CAVOK 03/01 Q1025 NOSIG
過去の天気等 Google飛行場航空写真 Wunderground天気予報

過去48時間のMETAR

飛行場予報(TAF)
発表時間: 2/21 00:00 CET (2/20 23:00 UTC)
予報対象時間: 21日1時 CET ~ 22日7時 CET
風向・風速西南西 4m/s
視程10km以上
なし
21日16時 CET ~ 21日19時 CET に徐々に
風向・風速西 6m/s
視程10km以上
全天の8割程度の雲 雲底高度 910m
21日19時 CET ~ 22日7時 CET に一時的に
風向・風速西北西 7m/s 瞬間風速 12m/s
視程6000m
天気現象弱い雨
全天の8割程度の雲 雲底高度 430m
21日22時 CET ~ 22日7時 CET に 確率 40% で一時的に
視程4000m
天気現象
全天の8割程度の雲 雲底高度 270m
TAF LKPR 202300Z 2100/2206 24008KT CAVOK
BECMG 2115/2118 27012KT 9999 BKN030
TEMPO 2118/2206 29014G24KT 6000 -RA BKN014
PROB40 TEMPO 2121/2206 4000 RA BKN009